메인 페이지
METAR-TAF:

METAR-TAF

공항 :

진나 국제공항

카라치, 파키스탄

위도: 24-54N, 경도: 067-08E, 고도: 21m

현재 날씨관측

예보는 32분 전, 19:55시(UTC)에 발표되었습니다.
북북동4kt
온도 15°C
습도 59%
기압 1016 hPa
시정: 4000m
연무

METAR: OPKC 301955Z 02004KT 4000 HZ NSC 15/07 Q1016 NOSIG

시각: 01:27 (20:27 UTC)

예보

예보는 4 시간 57분 전, 15:30시(UTC)에 발표되었습니다.
예보 대상 시간: 30일 18시부터 01일 24시까지 (UTC)
북북서12kt
시정: 6000m
일시적
30일 18시부터 30일 24시까지 (UTC)
북북동7kt
시정: 5000m
연무
일시적
01일 00시부터 01일 05시까지 (UTC)
kt
시정: 3000m
연무
전환 중
01일 18시부터 01일 20시까지 (UTC)
6kt
시정: 4000m
연무

TAF: OPKC 301530Z 3018/0124 34012KT 6000 NSC TEMPO 3018/3024 03007KT 5000 HZ NSC TEMPO 0100/0105 00000KT 3000 HZ NSC BECMG 0118/0120 36006KT 4000 HZ NSC

4,000개 이상의 공항 관측 자료 및 예보 (METAR 및 TAF 보고).

지도상에서 검색 가능한 기상관측소가 노란 점과 빨간 점으로 표시되어 있습니다.

기상관측소 명을 보려면 표시 위로 마우스를 이동하세요.

날씨 관측과 예보를 보려면 클릭하세요.

지도 변경 : 확대하려면 엑스 표시가 있는 녹색 버튼, 축소하려면 빼기 표시가 있는 녹색 버튼, 다음 페이지의 지도를 보려면 녹색 화살표를 클릭하세요.


METAR-TAF: